sensor_id;sensor_type;location;lat;lon;timestamp;P1;durP1;ratioP1;P2;durP2;ratioP2
55987;SDS011;75964;50.930;4.514;2024-03-02T00:00:18;1.27;;;0.47;;
55987;SDS011;75964;50.930;4.514;2024-03-02T00:02:46;1.00;;;0.70;;
55987;SDS011;75964;50.930;4.514;2024-03-02T00:05:14;1.20;;;0.50;;
55987;SDS011;75964;50.930;4.514;2024-03-02T00:07:41;2.50;;;0.50;;
55987;SDS011;75964;50.930;4.514;2024-03-02T00:10:08;1.15;;;0.60;;
55987;SDS011;75964;50.930;4.514;2024-03-02T00:12:38;0.85;;;0.40;;
55987;SDS011;75964;50.930;4.514;2024-03-02T00:15:05;0.60;;;0.30;;
55987;SDS011;75964;50.930;4.514;2024-03-02T00:17:52;2.30;;;1.67;;
55987;SDS011;75964;50.930;4.514;2024-03-02T00:20:19;1.45;;;0.65;;
55987;SDS011;75964;50.930;4.514;2024-03-02T00:22:47;1.15;;;0.50;;
55987;SDS011;75964;50.930;4.514;2024-03-02T00:25:12;1.52;;;0.43;;
55987;SDS011;75964;50.930;4.514;2024-03-02T00:27:38;0.50;;;0.40;;
55987;SDS011;75964;50.930;4.514;2024-03-02T00:32:59;2.22;;;0.52;;
55987;SDS011;75964;50.930;4.514;2024-03-02T00:35:25;1.63;;;0.63;;
55987;SDS011;75964;50.930;4.514;2024-03-02T00:37:51;1.63;;;0.60;;
55987;SDS011;75964;50.930;4.514;2024-03-02T00:40:16;1.65;;;0.52;;
55987;SDS011;75964;50.930;4.514;2024-03-02T00:42:44;0.88;;;0.40;;
55987;SDS011;75964;50.930;4.514;2024-03-02T00:45:09;0.77;;;0.40;;
55987;SDS011;75964;50.930;4.514;2024-03-02T00:47:41;4.63;;;0.80;;
55987;SDS011;75964;50.930;4.514;2024-03-02T00:50:07;1.00;;;0.30;;
55987;SDS011;75964;50.930;4.514;2024-03-02T00:52:34;1.13;;;0.38;;
55987;SDS011;75964;50.930;4.514;2024-03-02T00:54:59;2.20;;;0.47;;
55987;SDS011;75964;50.930;4.514;2024-03-02T00:57:25;1.10;;;0.40;;
55987;SDS011;75964;50.930;4.514;2024-03-02T01:02:20;1.77;;;0.50;;
55987;SDS011;75964;50.930;4.514;2024-03-02T01:04:46;0.50;;;0.40;;
55987;SDS011;75964;50.930;4.514;2024-03-02T01:07:12;0.88;;;0.50;;
55987;SDS011;75964;50.930;4.514;2024-03-02T01:09:37;0.90;;;0.40;;
55987;SDS011;75964;50.930;4.514;2024-03-02T01:12:03;1.35;;;0.50;;
55987;SDS011;75964;50.930;4.514;2024-03-02T01:14:29;0.98;;;0.40;;
55987;SDS011;75964;50.930;4.514;2024-03-02T01:16:55;1.02;;;0.40;;
55987;SDS011;75964;50.930;4.514;2024-03-02T01:19:21;0.43;;;0.30;;
55987;SDS011;75964;50.930;4.514;2024-03-02T01:21:46;0.85;;;0.50;;
55987;SDS011;75964;50.930;4.514;2024-03-02T01:24:12;1.60;;;0.50;;
55987;SDS011;75964;50.930;4.514;2024-03-02T01:26:38;1.67;;;0.40;;
55987;SDS011;75964;50.930;4.514;2024-03-02T01:29:04;0.85;;;0.40;;
55987;SDS011;75964;50.930;4.514;2024-03-02T01:31:29;0.82;;;0.30;;
55987;SDS011;75964;50.930;4.514;2024-03-02T01:33:55;1.58;;;0.40;;
55987;SDS011;75964;50.930;4.514;2024-03-02T01:36:21;2.10;;;0.65;;
55987;SDS011;75964;50.930;4.514;2024-03-02T01:38:46;3.72;;;0.60;;
55987;SDS011;75964;50.930;4.514;2024-03-02T01:41:12;0.90;;;0.40;;
55987;SDS011;75964;50.930;4.514;2024-03-02T01:43:38;2.47;;;0.88;;
55987;SDS011;75964;50.930;4.514;2024-03-02T01:46:04;0.32;;;0.30;;
55987;SDS011;75964;50.930;4.514;2024-03-02T01:48:29;2.15;;;0.68;;
55987;SDS011;75964;50.930;4.514;2024-03-02T01:50:55;0.70;;;0.50;;
55987;SDS011;75964;50.930;4.514;2024-03-02T01:53:21;1.77;;;0.47;;
55987;SDS011;75964;50.930;4.514;2024-03-02T01:55:47;2.15;;;0.32;;
55987;SDS011;75964;50.930;4.514;2024-03-02T01:58:12;1.80;;;0.68;;
55987;SDS011;75964;50.930;4.514;2024-03-02T02:00:38;1.70;;;0.55;;
55987;SDS011;75964;50.930;4.514;2024-03-02T02:03:04;2.88;;;0.60;;
55987;SDS011;75964;50.930;4.514;2024-03-02T02:05:29;1.67;;;0.68;;
55987;SDS011;75964;50.930;4.514;2024-03-02T02:07:56;0.75;;;0.43;;
55987;SDS011;75964;50.930;4.514;2024-03-02T02:10:23;1.20;;;0.50;;
55987;SDS011;75964;50.930;4.514;2024-03-02T02:12:49;2.30;;;0.70;;
55987;SDS011;75964;50.930;4.514;2024-03-02T02:15:30;2.78;;;0.73;;
55987;SDS011;75964;50.930;4.514;2024-03-02T02:17:57;2.60;;;1.05;;
55987;SDS011;75964;50.930;4.514;2024-03-02T02:20:23;2.28;;;0.68;;
55987;SDS011;75964;50.930;4.514;2024-03-02T02:23:04;2.85;;;0.82;;
55987;SDS011;75964;50.930;4.514;2024-03-02T02:25:32;3.30;;;0.65;;
55987;SDS011;75964;50.930;4.514;2024-03-02T02:27:59;1.45;;;0.60;;
55987;SDS011;75964;50.930;4.514;2024-03-02T02:30:25;3.40;;;0.88;;
55987;SDS011;75964;50.930;4.514;2024-03-02T02:32:52;1.98;;;0.55;;
55987;SDS011;75964;50.930;4.514;2024-03-02T02:35:18;2.30;;;0.50;;
55987;SDS011;75964;50.930;4.514;2024-03-02T02:37:44;3.88;;;0.77;;
55987;SDS011;75964;50.930;4.514;2024-03-02T02:40:11;2.00;;;0.70;;
55987;SDS011;75964;50.930;4.514;2024-03-02T02:42:38;1.85;;;0.73;;
55987;SDS011;75964;50.930;4.514;2024-03-02T02:45:04;2.70;;;0.68;;
55987;SDS011;75964;50.930;4.514;2024-03-02T02:47:30;3.90;;;1.05;;
55987;SDS011;75964;50.930;4.514;2024-03-02T02:49:58;1.85;;;0.70;;
55987;SDS011;75964;50.930;4.514;2024-03-02T02:52:24;3.13;;;0.60;;
55987;SDS011;75964;50.930;4.514;2024-03-02T02:54:50;2.30;;;0.70;;
55987;SDS011;75964;50.930;4.514;2024-03-02T02:57:16;4.68;;;0.93;;
55987;SDS011;75964;50.930;4.514;2024-03-02T02:59:42;1.45;;;0.60;;
55987;SDS011;75964;50.930;4.514;2024-03-02T03:02:07;2.13;;;0.70;;
55987;SDS011;75964;50.930;4.514;2024-03-02T03:04:33;2.22;;;0.68;;
55987;SDS011;75964;50.930;4.514;2024-03-02T03:06:58;2.65;;;0.80;;
55987;SDS011;75964;50.930;4.514;2024-03-02T03:09:24;2.13;;;0.52;;
55987;SDS011;75964;50.930;4.514;2024-03-02T03:11:50;3.35;;;0.60;;
55987;SDS011;75964;50.930;4.514;2024-03-02T03:14:16;3.25;;;0.95;;
55987;SDS011;75964;50.930;4.514;2024-03-02T03:16:41;4.20;;;0.93;;
55987;SDS011;75964;50.930;4.514;2024-03-02T03:19:07;2.08;;;0.65;;
55987;SDS011;75964;50.930;4.514;2024-03-02T03:21:33;2.97;;;0.70;;
55987;SDS011;75964;50.930;4.514;2024-03-02T03:23:59;3.55;;;0.70;;
55987;SDS011;75964;50.930;4.514;2024-03-02T03:26:24;2.47;;;0.70;;
55987;SDS011;75964;50.930;4.514;2024-03-02T03:28:50;1.85;;;0.52;;
55987;SDS011;75964;50.930;4.514;2024-03-02T03:31:16;2.00;;;0.60;;
55987;SDS011;75964;50.930;4.514;2024-03-02T03:33:41;1.58;;;0.60;;
55987;SDS011;75964;50.930;4.514;2024-03-02T03:36:07;1.90;;;0.70;;
55987;SDS011;75964;50.930;4.514;2024-03-02T03:38:32;2.80;;;0.73;;
55987;SDS011;75964;50.930;4.514;2024-03-02T03:40:58;3.35;;;0.88;;
55987;SDS011;75964;50.930;4.514;2024-03-02T03:43:24;0.95;;;0.50;;
55987;SDS011;75964;50.930;4.514;2024-03-02T03:45:49;2.20;;;1.00;;
55987;SDS011;75964;50.930;4.514;2024-03-02T03:48:15;3.03;;;0.70;;
55987;SDS011;75964;50.930;4.514;2024-03-02T03:50:41;2.38;;;0.55;;
55987;SDS011;75964;50.930;4.514;2024-03-02T03:53:06;3.35;;;0.98;;
55987;SDS011;75964;50.930;4.514;2024-03-02T03:55:32;6.07;;;1.33;;
55987;SDS011;75964;50.930;4.514;2024-03-02T03:57:58;2.40;;;0.80;;
55987;SDS011;75964;50.930;4.514;2024-03-02T04:00:23;4.63;;;0.85;;
55987;SDS011;75964;50.930;4.514;2024-03-02T04:02:49;2.88;;;0.98;;
55987;SDS011;75964;50.930;4.514;2024-03-02T04:05:15;6.00;;;1.02;;
55987;SDS011;75964;50.930;4.514;2024-03-02T04:07:40;2.80;;;0.80;;
55987;SDS011;75964;50.930;4.514;2024-03-02T04:10:08;5.22;;;1.00;;
55987;SDS011;75964;50.930;4.514;2024-03-02T04:12:35;2.53;;;1.00;;
55987;SDS011;75964;50.930;4.514;2024-03-02T04:15:07;2.00;;;0.73;;
55987;SDS011;75964;50.930;4.514;2024-03-02T04:17:33;3.97;;;0.90;;
55987;SDS011;75964;50.930;4.514;2024-03-02T04:19:59;2.33;;;1.13;;
55987;SDS011;75964;50.930;4.514;2024-03-02T04:22:26;3.60;;;1.23;;
55987;SDS011;75964;50.930;4.514;2024-03-02T04:24:52;2.80;;;0.80;;
55987;SDS011;75964;50.930;4.514;2024-03-02T04:27:18;3.22;;;0.90;;
55987;SDS011;75964;50.930;4.514;2024-03-02T04:29:43;3.97;;;0.80;;
55987;SDS011;75964;50.930;4.514;2024-03-02T04:32:09;3.78;;;1.08;;
55987;SDS011;75964;50.930;4.514;2024-03-02T04:34:35;4.70;;;0.90;;
55987;SDS011;75964;50.930;4.514;2024-03-02T04:37:00;5.45;;;1.00;;
55987;SDS011;75964;50.930;4.514;2024-03-02T04:39:26;1.90;;;0.80;;
55987;SDS011;75964;50.930;4.514;2024-03-02T04:41:52;3.58;;;1.10;;
55987;SDS011;75964;50.930;4.514;2024-03-02T04:44:17;6.07;;;0.80;;
55987;SDS011;75964;50.930;4.514;2024-03-02T04:46:43;2.40;;;0.88;;
55987;SDS011;75964;50.930;4.514;2024-03-02T04:49:09;2.22;;;0.60;;
55987;SDS011;75964;50.930;4.514;2024-03-02T04:51:34;2.95;;;0.70;;
55987;SDS011;75964;50.930;4.514;2024-03-02T04:54:00;4.00;;;0.77;;
55987;SDS011;75964;50.930;4.514;2024-03-02T04:56:26;2.45;;;0.70;;
55987;SDS011;75964;50.930;4.514;2024-03-02T04:58:57;2.53;;;0.85;;
55987;SDS011;75964;50.930;4.514;2024-03-02T05:01:23;3.08;;;0.80;;
55987;SDS011;75964;50.930;4.514;2024-03-02T05:03:48;3.65;;;0.70;;
55987;SDS011;75964;50.930;4.514;2024-03-02T05:06:14;3.25;;;0.80;;
55987;SDS011;75964;50.930;4.514;2024-03-02T05:08:40;4.65;;;0.98;;
55987;SDS011;75964;50.930;4.514;2024-03-02T05:11:05;1.55;;;0.50;;
55987;SDS011;75964;50.930;4.514;2024-03-02T05:13:49;5.63;;;0.80;;
55987;SDS011;75964;50.930;4.514;2024-03-02T05:16:15;3.53;;;0.70;;
55987;SDS011;75964;50.930;4.514;2024-03-02T05:18:41;4.10;;;0.80;;
55987;SDS011;75964;50.930;4.514;2024-03-02T05:21:06;2.95;;;0.70;;
55987;SDS011;75964;50.930;4.514;2024-03-02T05:23:32;3.13;;;1.15;;
55987;SDS011;75964;50.930;4.514;2024-03-02T05:25:58;3.47;;;0.90;;
55987;SDS011;75964;50.930;4.514;2024-03-02T05:28:24;1.98;;;0.52;;
55987;SDS011;75964;50.930;4.514;2024-03-02T05:30:49;2.45;;;0.75;;
55987;SDS011;75964;50.930;4.514;2024-03-02T05:33:18;7.70;;;0.60;;
55987;SDS011;75964;50.930;4.514;2024-03-02T05:35:44;2.85;;;0.88;;
55987;SDS011;75964;50.930;4.514;2024-03-02T05:38:09;5.50;;;0.77;;
55987;SDS011;75964;50.930;4.514;2024-03-02T05:40:35;4.18;;;0.90;;
55987;SDS011;75964;50.930;4.514;2024-03-02T05:43:01;3.58;;;0.80;;
55987;SDS011;75964;50.930;4.514;2024-03-02T05:45:26;4.63;;;1.00;;
55987;SDS011;75964;50.930;4.514;2024-03-02T05:47:52;3.50;;;0.80;;
55987;SDS011;75964;50.930;4.514;2024-03-02T05:50:18;4.30;;;0.90;;
55987;SDS011;75964;50.930;4.514;2024-03-02T05:52:45;5.47;;;0.90;;
55987;SDS011;75964;50.930;4.514;2024-03-02T05:55:10;3.72;;;1.00;;
55987;SDS011;75964;50.930;4.514;2024-03-02T05:57:36;2.53;;;0.75;;
55987;SDS011;75964;50.930;4.514;2024-03-02T06:00:20;2.78;;;0.90;;
55987;SDS011;75964;50.930;4.514;2024-03-02T06:02:46;5.03;;;1.13;;
55987;SDS011;75964;50.930;4.514;2024-03-02T06:05:11;3.28;;;0.90;;
55987;SDS011;75964;50.930;4.514;2024-03-02T06:07:37;3.13;;;0.77;;
55987;SDS011;75964;50.930;4.514;2024-03-02T06:10:03;5.55;;;1.02;;
55987;SDS011;75964;50.930;4.514;2024-03-02T06:12:30;4.25;;;0.90;;
55987;SDS011;75964;50.930;4.514;2024-03-02T06:14:57;3.67;;;1.10;;
55987;SDS011;75964;50.930;4.514;2024-03-02T06:17:23;5.28;;;1.10;;
55987;SDS011;75964;50.930;4.514;2024-03-02T06:19:48;4.38;;;1.05;;
55987;SDS011;75964;50.930;4.514;2024-03-02T06:22:14;4.18;;;1.00;;
55987;SDS011;75964;50.930;4.514;2024-03-02T06:24:39;3.38;;;0.95;;
55987;SDS011;75964;50.930;4.514;2024-03-02T06:27:05;4.47;;;1.42;;
55987;SDS011;75964;50.930;4.514;2024-03-02T06:29:34;6.40;;;1.65;;
55987;SDS011;75964;50.930;4.514;2024-03-02T06:31:59;4.20;;;1.37;;
55987;SDS011;75964;50.930;4.514;2024-03-02T06:34:25;6.60;;;1.23;;
55987;SDS011;75964;50.930;4.514;2024-03-02T06:36:51;8.15;;;1.40;;
55987;SDS011;75964;50.930;4.514;2024-03-02T06:39:16;8.20;;;1.17;;
55987;SDS011;75964;50.930;4.514;2024-03-02T06:41:42;6.53;;;1.58;;
55987;SDS011;75964;50.930;4.514;2024-03-02T06:44:08;3.85;;;0.90;;
55987;SDS011;75964;50.930;4.514;2024-03-02T06:46:33;7.55;;;1.58;;
55987;SDS011;75964;50.930;4.514;2024-03-02T06:48:59;8.50;;;1.20;;
55987;SDS011;75964;50.930;4.514;2024-03-02T06:51:27;4.70;;;1.17;;
55987;SDS011;75964;50.930;4.514;2024-03-02T06:53:53;7.70;;;1.27;;
55987;SDS011;75964;50.930;4.514;2024-03-02T06:56:18;6.40;;;1.40;;
55987;SDS011;75964;50.930;4.514;2024-03-02T06:58:44;6.18;;;1.35;;
55987;SDS011;75964;50.930;4.514;2024-03-02T07:01:10;3.50;;;1.23;;
55987;SDS011;75964;50.930;4.514;2024-03-02T07:03:35;4.35;;;1.13;;
55987;SDS011;75964;50.930;4.514;2024-03-02T07:06:01;8.18;;;1.65;;
55987;SDS011;75964;50.930;4.514;2024-03-02T07:08:28;7.05;;;1.50;;
55987;SDS011;75964;50.930;4.514;2024-03-02T07:10:53;7.50;;;1.38;;
55987;SDS011;75964;50.930;4.514;2024-03-02T07:13:19;4.68;;;1.10;;
55987;SDS011;75964;50.930;4.514;2024-03-02T07:15:45;3.85;;;1.17;;
55987;SDS011;75964;50.930;4.514;2024-03-02T07:18:10;5.85;;;1.10;;
55987;SDS011;75964;50.930;4.514;2024-03-02T07:20:37;8.43;;;1.13;;
55987;SDS011;75964;50.930;4.514;2024-03-02T07:23:04;5.75;;;0.80;;
55987;SDS011;75964;50.930;4.514;2024-03-02T07:25:29;8.77;;;1.38;;
55987;SDS011;75964;50.930;4.514;2024-03-02T07:27:55;6.40;;;1.65;;
55987;SDS011;75964;50.930;4.514;2024-03-02T07:30:21;6.20;;;1.30;;
55987;SDS011;75964;50.930;4.514;2024-03-02T07:32:49;6.68;;;1.30;;
55987;SDS011;75964;50.930;4.514;2024-03-02T07:35:15;9.27;;;0.97;;
55987;SDS011;75964;50.930;4.514;2024-03-02T07:37:41;9.82;;;1.90;;
55987;SDS011;75964;50.930;4.514;2024-03-02T07:40:08;5.28;;;1.20;;
55987;SDS011;75964;50.930;4.514;2024-03-02T07:42:36;11.10;;;1.67;;
55987;SDS011;75964;50.930;4.514;2024-03-02T07:45:05;9.77;;;1.52;;
55987;SDS011;75964;50.930;4.514;2024-03-02T07:47:32;5.10;;;1.65;;
55987;SDS011;75964;50.930;4.514;2024-03-02T07:49:59;7.93;;;2.17;;
55987;SDS011;75964;50.930;4.514;2024-03-02T07:52:24;7.18;;;1.77;;
55987;SDS011;75964;50.930;4.514;2024-03-02T07:54:50;5.80;;;1.42;;
55987;SDS011;75964;50.930;4.514;2024-03-02T07:57:16;10.27;;;1.55;;
55987;SDS011;75964;50.930;4.514;2024-03-02T07:59:41;11.00;;;1.75;;
55987;SDS011;75964;50.930;4.514;2024-03-02T08:02:08;7.90;;;1.40;;
55987;SDS011;75964;50.930;4.514;2024-03-02T08:04:34;10.75;;;1.70;;
55987;SDS011;75964;50.930;4.514;2024-03-02T08:06:59;6.57;;;1.55;;
55987;SDS011;75964;50.930;4.514;2024-03-02T08:09:25;8.40;;;1.80;;
55987;SDS011;75964;50.930;4.514;2024-03-02T08:11:51;7.22;;;1.63;;
55987;SDS011;75964;50.930;4.514;2024-03-02T08:14:16;12.07;;;2.00;;
55987;SDS011;75964;50.930;4.514;2024-03-02T08:16:42;8.55;;;2.00;;
55987;SDS011;75964;50.930;4.514;2024-03-02T08:19:08;14.60;;;1.92;;
55987;SDS011;75964;50.930;4.514;2024-03-02T08:21:34;7.85;;;1.48;;
55987;SDS011;75964;50.930;4.514;2024-03-02T08:24:00;10.82;;;1.90;;
55987;SDS011;75964;50.930;4.514;2024-03-02T08:26:27;6.20;;;1.52;;
55987;SDS011;75964;50.930;4.514;2024-03-02T08:28:54;6.43;;;1.25;;
55987;SDS011;75964;50.930;4.514;2024-03-02T08:31:20;7.25;;;1.48;;
55987;SDS011;75964;50.930;4.514;2024-03-02T08:33:46;6.38;;;1.40;;
55987;SDS011;75964;50.930;4.514;2024-03-02T08:36:12;5.78;;;1.25;;
55987;SDS011;75964;50.930;4.514;2024-03-02T08:38:37;6.35;;;1.17;;
55987;SDS011;75964;50.930;4.514;2024-03-02T08:41:04;8.98;;;1.70;;
55987;SDS011;75964;50.930;4.514;2024-03-02T08:43:29;13.32;;;1.77;;
55987;SDS011;75964;50.930;4.514;2024-03-02T08:45:55;9.30;;;1.65;;
55987;SDS011;75964;50.930;4.514;2024-03-02T08:48:21;7.30;;;1.45;;
55987;SDS011;75964;50.930;4.514;2024-03-02T08:50:47;16.52;;;4.38;;
55987;SDS011;75964;50.930;4.514;2024-03-02T08:53:12;9.93;;;2.92;;
55987;SDS011;75964;50.930;4.514;2024-03-02T08:55:38;7.05;;;1.35;;
55987;SDS011;75964;50.930;4.514;2024-03-02T08:58:04;10.57;;;1.98;;
55987;SDS011;75964;50.930;4.514;2024-03-02T09:00:29;12.52;;;3.90;;
55987;SDS011;75964;50.930;4.514;2024-03-02T09:02:55;9.60;;;1.88;;
55987;SDS011;75964;50.930;4.514;2024-03-02T09:05:21;11.65;;;2.13;;
55987;SDS011;75964;50.930;4.514;2024-03-02T09:07:46;9.88;;;2.80;;
55987;SDS011;75964;50.930;4.514;2024-03-02T09:10:12;10.15;;;3.30;;
55987;SDS011;75964;50.930;4.514;2024-03-02T09:12:38;7.75;;;1.80;;
55987;SDS011;75964;50.930;4.514;2024-03-02T09:15:04;7.15;;;1.42;;
55987;SDS011;75964;50.930;4.514;2024-03-02T09:17:33;12.70;;;1.50;;
55987;SDS011;75964;50.930;4.514;2024-03-02T09:19:59;11.82;;;1.77;;
55987;SDS011;75964;50.930;4.514;2024-03-02T09:22:24;8.32;;;1.50;;
55987;SDS011;75964;50.930;4.514;2024-03-02T09:24:50;7.47;;;1.60;;
55987;SDS011;75964;50.930;4.514;2024-03-02T09:27:16;8.48;;;1.55;;
55987;SDS011;75964;50.930;4.514;2024-03-02T09:29:41;8.02;;;1.80;;
55987;SDS011;75964;50.930;4.514;2024-03-02T09:32:08;10.73;;;1.35;;
55987;SDS011;75964;50.930;4.514;2024-03-02T09:34:37;7.63;;;1.27;;
55987;SDS011;75964;50.930;4.514;2024-03-02T09:37:03;10.25;;;1.40;;
55987;SDS011;75964;50.930;4.514;2024-03-02T09:39:29;13.88;;;2.20;;
55987;SDS011;75964;50.930;4.514;2024-03-02T09:41:55;9.77;;;1.40;;
55987;SDS011;75964;50.930;4.514;2024-03-02T09:44:21;8.05;;;1.70;;
55987;SDS011;75964;50.930;4.514;2024-03-02T09:46:50;7.63;;;1.40;;
55987;SDS011;75964;50.930;4.514;2024-03-02T09:49:16;15.35;;;1.98;;
55987;SDS011;75964;50.930;4.514;2024-03-02T09:51:48;8.10;;;1.40;;
55987;SDS011;75964;50.930;4.514;2024-03-02T09:54:17;8.45;;;1.45;;
55987;SDS011;75964;50.930;4.514;2024-03-02T09:56:46;13.87;;;1.77;;
55987;SDS011;75964;50.930;4.514;2024-03-02T09:59:12;8.48;;;1.80;;
55987;SDS011;75964;50.930;4.514;2024-03-02T10:04:27;5.88;;;1.20;;
55987;SDS011;75964;50.930;4.514;2024-03-02T10:07:10;8.45;;;1.42;;
55987;SDS011;75964;50.930;4.514;2024-03-02T10:09:41;7.78;;;1.30;;
55987;SDS011;75964;50.930;4.514;2024-03-02T10:12:08;6.57;;;1.38;;
55987;SDS011;75964;50.930;4.514;2024-03-02T10:14:34;8.63;;;1.40;;
55987;SDS011;75964;50.930;4.514;2024-03-02T10:17:06;5.32;;;1.20;;
55987;SDS011;75964;50.930;4.514;2024-03-02T10:19:35;7.20;;;1.40;;
55987;SDS011;75964;50.930;4.514;2024-03-02T10:22:02;9.25;;;1.40;;
55987;SDS011;75964;50.930;4.514;2024-03-02T10:24:41;7.10;;;1.20;;
55987;SDS011;75964;50.930;4.514;2024-03-02T10:27:10;9.43;;;1.70;;
55987;SDS011;75964;50.930;4.514;2024-03-02T10:29:40;8.32;;;1.30;;
55987;SDS011;75964;50.930;4.514;2024-03-02T10:32:10;8.10;;;1.58;;
55987;SDS011;75964;50.930;4.514;2024-03-02T10:34:37;9.52;;;1.73;;
55987;SDS011;75964;50.930;4.514;2024-03-02T10:37:05;7.50;;;1.38;;
55987;SDS011;75964;50.930;4.514;2024-03-02T10:39:36;11.07;;;1.75;;
55987;SDS011;75964;50.930;4.514;2024-03-02T10:42:05;6.95;;;1.27;;
55987;SDS011;75964;50.930;4.514;2024-03-02T10:44:32;7.38;;;1.40;;
55987;SDS011;75964;50.930;4.514;2024-03-02T10:47:02;8.48;;;1.30;;
55987;SDS011;75964;50.930;4.514;2024-03-02T10:49:33;8.05;;;1.25;;
55987;SDS011;75964;50.930;4.514;2024-03-02T10:51:59;7.05;;;1.48;;
55987;SDS011;75964;50.930;4.514;2024-03-02T10:54:26;7.68;;;1.42;;
55987;SDS011;75964;50.930;4.514;2024-03-02T10:56:54;6.97;;;1.20;;
55987;SDS011;75964;50.930;4.514;2024-03-02T10:59:33;8.98;;;1.33;;
55987;SDS011;75964;50.930;4.514;2024-03-02T11:02:04;5.80;;;1.13;;
55987;SDS011;75964;50.930;4.514;2024-03-02T11:04:34;9.25;;;1.42;;
55987;SDS011;75964;50.930;4.514;2024-03-02T11:07:03;10.48;;;1.70;;
55987;SDS011;75964;50.930;4.514;2024-03-02T11:09:33;5.55;;;1.30;;
55987;SDS011;75964;50.930;4.514;2024-03-02T11:15:12;7.15;;;1.38;;
55987;SDS011;75964;50.930;4.514;2024-03-02T11:17:46;7.78;;;1.20;;
55987;SDS011;75964;50.930;4.514;2024-03-02T11:20:13;6.10;;;1.13;;
55987;SDS011;75964;50.930;4.514;2024-03-02T11:22:41;7.78;;;1.58;;
55987;SDS011;75964;50.930;4.514;2024-03-02T11:25:22;10.32;;;1.40;;
55987;SDS011;75964;50.930;4.514;2024-03-02T11:33:03;4.65;;;1.17;;
55987;SDS011;75964;50.930;4.514;2024-03-02T11:35:33;9.15;;;1.50;;
55987;SDS011;75964;50.930;4.514;2024-03-02T11:40:28;6.78;;;1.48;;
55987;SDS011;75964;50.930;4.514;2024-03-02T11:42:55;5.78;;;1.27;;
55987;SDS011;75964;50.930;4.514;2024-03-02T11:45:25;6.95;;;1.45;;
55987;SDS011;75964;50.930;4.514;2024-03-02T11:47:55;9.18;;;1.40;;
55987;SDS011;75964;50.930;4.514;2024-03-02T11:50:35;6.97;;;1.45;;
55987;SDS011;75964;50.930;4.514;2024-03-02T11:53:05;5.72;;;1.20;;
55987;SDS011;75964;50.930;4.514;2024-03-02T11:55:33;4.70;;;1.48;;
55987;SDS011;75964;50.930;4.514;2024-03-02T11:58:04;8.07;;;1.65;;
55987;SDS011;75964;50.930;4.514;2024-03-02T12:00:30;5.65;;;1.55;;
55987;SDS011;75964;50.930;4.514;2024-03-02T12:03:00;8.25;;;1.70;;
55987;SDS011;75964;50.930;4.514;2024-03-02T12:05:30;6.70;;;1.67;;
55987;SDS011;75964;50.930;4.514;2024-03-02T12:08:01;7.72;;;2.08;;
55987;SDS011;75964;50.930;4.514;2024-03-02T12:10:29;6.65;;;1.33;;
55987;SDS011;75964;50.930;4.514;2024-03-02T12:12:59;5.90;;;1.02;;
55987;SDS011;75964;50.930;4.514;2024-03-02T12:15:26;7.40;;;1.30;;
55987;SDS011;75964;50.930;4.514;2024-03-02T12:17:56;8.73;;;1.67;;
55987;SDS011;75964;50.930;4.514;2024-03-02T12:20:26;9.02;;;1.50;;
55987;SDS011;75964;50.930;4.514;2024-03-02T12:22:54;9.40;;;1.88;;
55987;SDS011;75964;50.930;4.514;2024-03-02T12:25:22;8.48;;;1.17;;
55987;SDS011;75964;50.930;4.514;2024-03-02T12:27:49;7.55;;;1.30;;
55987;SDS011;75964;50.930;4.514;2024-03-02T12:30:17;9.65;;;1.20;;
55987;SDS011;75964;50.930;4.514;2024-03-02T12:32:43;4.70;;;1.30;;
55987;SDS011;75964;50.930;4.514;2024-03-02T12:35:13;8.73;;;1.48;;
55987;SDS011;75964;50.930;4.514;2024-03-02T12:37:45;7.18;;;1.45;;
55987;SDS011;75964;50.930;4.514;2024-03-02T12:40:15;6.93;;;1.20;;
55987;SDS011;75964;50.930;4.514;2024-03-02T12:42:43;6.72;;;1.30;;
55987;SDS011;75964;50.930;4.514;2024-03-02T12:45:10;6.03;;;1.30;;
55987;SDS011;75964;50.930;4.514;2024-03-02T12:47:36;7.53;;;1.55;;
55987;SDS011;75964;50.930;4.514;2024-03-02T12:50:04;7.45;;;1.38;;
55987;SDS011;75964;50.930;4.514;2024-03-02T12:52:30;8.43;;;1.40;;
55987;SDS011;75964;50.930;4.514;2024-03-02T12:54:57;4.53;;;1.33;;
55987;SDS011;75964;50.930;4.514;2024-03-02T12:57:28;7.78;;;1.55;;
55987;SDS011;75964;50.930;4.514;2024-03-02T13:02:28;6.25;;;1.30;;
55987;SDS011;75964;50.930;4.514;2024-03-02T13:04:55;9.15;;;1.50;;
55987;SDS011;75964;50.930;4.514;2024-03-02T13:07:23;6.13;;;1.23;;
55987;SDS011;75964;50.930;4.514;2024-03-02T13:09:52;7.38;;;1.38;;
55987;SDS011;75964;50.930;4.514;2024-03-02T13:12:20;7.90;;;1.33;;
55987;SDS011;75964;50.930;4.514;2024-03-02T13:14:51;5.97;;;1.98;;
55987;SDS011;75964;50.930;4.514;2024-03-02T13:17:20;6.00;;;1.60;;
55987;SDS011;75964;50.930;4.514;2024-03-02T13:19:56;5.57;;;1.25;;
55987;SDS011;75964;50.930;4.514;2024-03-02T13:22:23;7.82;;;1.00;;
55987;SDS011;75964;50.930;4.514;2024-03-02T13:24:49;6.03;;;1.23;;
55987;SDS011;75964;50.930;4.514;2024-03-02T13:27:15;6.22;;;0.88;;
55987;SDS011;75964;50.930;4.514;2024-03-02T13:29:44;5.07;;;1.17;;
55987;SDS011;75964;50.930;4.514;2024-03-02T13:32:11;4.50;;;1.10;;
55987;SDS011;75964;50.930;4.514;2024-03-02T13:34:37;7.13;;;1.00;;
55987;SDS011;75964;50.930;4.514;2024-03-02T13:37:03;4.63;;;1.10;;
55987;SDS011;75964;50.930;4.514;2024-03-02T13:39:30;4.00;;;0.93;;
55987;SDS011;75964;50.930;4.514;2024-03-02T13:41:57;3.95;;;1.00;;
55987;SDS011;75964;50.930;4.514;2024-03-02T13:44:29;5.50;;;1.00;;
55987;SDS011;75964;50.930;4.514;2024-03-02T13:46:55;5.15;;;1.30;;
55987;SDS011;75964;50.930;4.514;2024-03-02T13:49:22;5.70;;;1.50;;
55987;SDS011;75964;50.930;4.514;2024-03-02T13:51:48;3.55;;;1.10;;
55987;SDS011;75964;50.930;4.514;2024-03-02T13:54:14;3.78;;;1.20;;
55987;SDS011;75964;50.930;4.514;2024-03-02T13:56:41;4.30;;;1.00;;
55987;SDS011;75964;50.930;4.514;2024-03-02T13:59:07;2.38;;;0.85;;
55987;SDS011;75964;50.930;4.514;2024-03-02T14:01:35;6.32;;;0.93;;
55987;SDS011;75964;50.930;4.514;2024-03-02T14:04:00;3.08;;;0.80;;
55987;SDS011;75964;50.930;4.514;2024-03-02T14:06:26;2.22;;;0.70;;
55987;SDS011;75964;50.930;4.514;2024-03-02T14:08:52;3.78;;;0.85;;
55987;SDS011;75964;50.930;4.514;2024-03-02T14:11:18;2.95;;;0.80;;
55987;SDS011;75964;50.930;4.514;2024-03-02T14:13:44;6.05;;;0.80;;
55987;SDS011;75964;50.930;4.514;2024-03-02T14:16:14;5.72;;;1.60;;
55987;SDS011;75964;50.930;4.514;2024-03-02T14:18:41;4.80;;;1.42;;
55987;SDS011;75964;50.930;4.514;2024-03-02T14:21:07;4.30;;;1.20;;
55987;SDS011;75964;50.930;4.514;2024-03-02T14:23:33;4.05;;;0.88;;
55987;SDS011;75964;50.930;4.514;2024-03-02T14:25:58;2.53;;;0.70;;
55987;SDS011;75964;50.930;4.514;2024-03-02T14:28:24;5.40;;;1.02;;
55987;SDS011;75964;50.930;4.514;2024-03-02T14:30:50;2.75;;;0.70;;
55987;SDS011;75964;50.930;4.514;2024-03-02T14:33:16;4.30;;;1.10;;
55987;SDS011;75964;50.930;4.514;2024-03-02T14:35:42;2.50;;;0.85;;
55987;SDS011;75964;50.930;4.514;2024-03-02T14:38:10;5.47;;;1.00;;
55987;SDS011;75964;50.930;4.514;2024-03-02T14:40:36;4.00;;;0.85;;
55987;SDS011;75964;50.930;4.514;2024-03-02T14:43:02;3.05;;;0.93;;
55987;SDS011;75964;50.930;4.514;2024-03-02T14:45:28;4.07;;;1.02;;
55987;SDS011;75964;50.930;4.514;2024-03-02T14:47:54;2.35;;;1.00;;
55987;SDS011;75964;50.930;4.514;2024-03-02T14:50:21;3.30;;;0.98;;
55987;SDS011;75964;50.930;4.514;2024-03-02T14:52:47;4.03;;;0.95;;
55987;SDS011;75964;50.930;4.514;2024-03-02T14:55:13;5.18;;;1.05;;
55987;SDS011;75964;50.930;4.514;2024-03-02T14:57:39;4.65;;;1.20;;
55987;SDS011;75964;50.930;4.514;2024-03-02T15:00:05;2.70;;;0.80;;
55987;SDS011;75964;50.930;4.514;2024-03-02T15:02:36;2.97;;;1.05;;
55987;SDS011;75964;50.930;4.514;2024-03-02T15:05:03;3.20;;;1.20;;
55987;SDS011;75964;50.930;4.514;2024-03-02T15:07:32;5.80;;;0.90;;